Time;durP1;ratioP1;P1;durP2;ratioP2;P2;SDS_P1;SDS_P2;PMS_P1;PMS_P2;Temp;Humidity;BMP_temperature;BMP_pressure;BME280_temperature;BME280_humidity;BME280_pressure;Samples;Min_cycle;Max_cycle;Signal;HPM_P1;HPM_P2
2023/04/17 00:01:28;;;;;;;12.40;8.55;;;7.70;99.90;;;;;;5030367;28;20201;-67
2023/04/17 00:03:57;;;;;;;11.75;8.88;;;7.70;99.90;;;;;;5030555;28;20573;-67
2023/04/17 00:06:26;;;;;;;9.85;7.07;;;7.70;99.90;;;;;;5030418;28;20253;-66
2023/04/17 00:08:52;;;;;;;12.20;7.97;;;7.70;99.90;;;;;;5030099;28;20252;-67
2023/04/17 00:11:20;;;;;;;12.20;8.20;;;7.70;99.90;;;;;;5029827;28;20201;-67
2023/04/17 00:13:46;;;;;;;12.32;7.30;;;7.70;99.90;;;;;;5030206;28;20206;-66
2023/04/17 00:16:13;;;;;;;13.55;8.32;;;7.70;99.90;;;;;;5030221;28;20222;-67
2023/04/17 00:18:40;;;;;;;12.50;8.25;;;7.70;99.90;;;;;;5030213;28;20220;-66
2023/04/17 00:21:08;;;;;;;11.63;8.70;;;7.70;99.90;;;;;;5029635;28;20205;-67
2023/04/17 00:23:35;;;;;;;11.88;7.60;;;7.70;99.90;;;;;;5030217;28;20205;-67
2023/04/17 00:26:02;;;;;;;11.20;7.85;;;7.70;99.90;;;;;;5030015;28;20210;-67
2023/04/17 00:28:28;;;;;;;10.88;7.85;;;7.70;99.90;;;;;;5029861;28;20206;-66
2023/04/17 00:30:57;;;;;;;13.23;8.68;;;7.70;99.90;;;;;;5029460;28;20194;-67
2023/04/17 00:33:23;;;;;;;10.52;7.47;;;7.70;99.90;;;;;;5029951;28;20712;-68
2023/04/17 00:35:50;;;;;;;10.98;8.40;;;7.70;99.90;;;;;;5029976;28;20197;-67
2023/04/17 00:38:18;;;;;;;9.50;7.82;;;7.70;99.90;;;;;;5029742;28;20845;-67
2023/04/17 00:40:45;;;;;;;11.48;8.15;;;7.70;99.90;;;;;;5029631;28;20205;-66
2023/04/17 00:43:11;;;;;;;12.55;8.73;;;7.70;99.90;;;;;;5029875;28;20193;-65
2023/04/17 00:45:39;;;;;;;10.50;7.20;;;7.70;99.90;;;;;;5030245;28;20325;-67
2023/04/17 00:48:08;;;;;;;10.93;7.60;;;7.70;99.90;;;;;;5029623;28;20220;-67
2023/04/17 00:50:35;;;;;;;11.43;8.20;;;7.70;99.90;;;;;;5029450;28;20221;-68
2023/04/17 00:53:02;;;;;;;10.98;8.43;;;7.70;99.90;;;;;;5029893;28;20198;-67
2023/04/17 00:55:32;;;;;;;10.85;7.25;;;7.70;99.90;;;;;;5029767;28;20285;-68
2023/04/17 00:57:58;;;;;;;13.65;9.30;;;7.70;99.90;;;;;;5029490;28;20229;-67
2023/04/17 01:00:25;;;;;;;11.00;8.20;;;7.70;99.90;;;;;;5029294;28;20208;-67
2023/04/17 01:02:52;;;;;;;11.32;7.55;;;7.70;99.90;;;;;;5029630;28;20205;-67
2023/04/17 01:05:19;;;;;;;10.82;8.32;;;7.70;99.90;;;;;;5029785;28;20223;-67
2023/04/17 01:07:46;;;;;;;10.10;7.70;;;7.70;99.90;;;;;;5029715;28;20585;-67
2023/04/17 01:10:12;;;;;;;12.15;8.20;;;7.60;99.90;;;;;;5029101;28;20219;-66
2023/04/17 01:12:45;;;;;;;11.45;8.40;;;7.70;99.90;;;;;;5029745;28;20198;-66
2023/04/17 01:15:12;;;;;;;13.40;8.27;;;7.70;99.90;;;;;;5029469;28;20218;-66
2023/04/17 01:17:38;;;;;;;11.35;7.82;;;7.70;99.90;;;;;;5029529;28;20217;-68
2023/04/17 01:20:09;;;;;;;12.93;8.70;;;7.70;99.90;;;;;;5029157;28;20656;-66
2023/04/17 01:22:36;;;;;;;12.68;9.02;;;7.70;99.90;;;;;;5029392;28;20284;-68
2023/04/17 01:25:04;;;;;;;14.75;9.00;;;7.70;99.90;;;;;;5029194;28;20205;-67
2023/04/17 01:27:31;;;;;;;14.40;7.55;;;7.60;99.90;;;;;;5029034;28;20256;-67
2023/04/17 01:29:58;;;;;;;9.60;7.00;;;7.60;99.90;;;;;;5025979;28;20249;-67
2023/04/17 01:32:25;;;;;;;8.85;6.57;;;7.60;99.90;;;;;;5029887;28;20213;-67
2023/04/17 01:34:51;;;;;;;10.73;8.18;;;7.60;99.90;;;;;;5033529;28;20256;-67
2023/04/17 01:37:18;;;;;;;9.95;7.63;;;7.70;99.90;;;;;;5033311;28;20236;-67
2023/04/17 01:39:45;;;;;;;9.40;7.05;;;7.60;99.90;;;;;;5033359;28;20194;-67
2023/04/17 01:42:13;;;;;;;10.45;8.30;;;7.60;99.90;;;;;;5032899;28;20225;-66
2023/04/17 01:44:40;;;;;;;13.80;8.93;;;7.60;99.90;;;;;;5033208;28;20198;-67
2023/04/17 01:47:06;;;;;;;12.50;7.85;;;7.60;99.90;;;;;;5032605;28;20225;-67
2023/04/17 01:49:33;;;;;;;10.38;7.30;;;7.60;99.90;;;;;;5032732;28;20628;-66
2023/04/17 01:52:00;;;;;;;11.20;7.57;;;7.70;99.90;;;;;;5032375;28;20205;-67
2023/04/17 01:54:26;;;;;;;12.68;8.20;;;7.70;99.90;;;;;;5032547;28;20278;-67
2023/04/17 01:56:53;;;;;;;12.25;8.30;;;7.70;99.90;;;;;;5032605;28;20280;-67
2023/04/17 01:59:21;;;;;;;9.52;7.03;;;7.70;99.90;;;;;;5032634;28;20240;-66
2023/04/17 02:01:49;;;;;;;11.10;7.95;;;7.70;99.90;;;;;;5032429;28;20580;-66
2023/04/17 02:04:16;;;;;;;9.18;7.55;;;7.70;99.90;;;;;;5032519;28;20209;-67
2023/04/17 02:06:43;;;;;;;13.23;8.40;;;7.70;99.90;;;;;;5032375;28;20715;-67
2023/04/17 02:09:10;;;;;;;11.45;7.15;;;7.70;99.90;;;;;;5032315;28;20205;-67
2023/04/17 02:11:37;;;;;;;11.88;8.38;;;7.70;99.90;;;;;;5032346;28;20201;-67
2023/04/17 02:14:03;;;;;;;10.77;7.55;;;7.70;99.90;;;;;;5032415;28;20202;-67
2023/04/17 02:16:31;;;;;;;13.98;7.50;;;7.70;99.90;;;;;;5031882;28;20304;-67
2023/04/17 02:18:58;;;;;;;11.20;7.50;;;7.70;99.90;;;;;;5032331;28;20210;-67
2023/04/17 02:21:25;;;;;;;19.83;7.95;;;7.70;99.90;;;;;;5031614;28;20201;-66
2023/04/17 02:23:52;;;;;;;11.20;7.78;;;7.70;99.90;;;;;;5032071;28;20197;-66
2023/04/17 02:26:19;;;;;;;11.32;7.90;;;7.70;99.90;;;;;;5032115;28;20222;-67
2023/04/17 02:28:45;;;;;;;10.93;7.53;;;7.70;99.90;;;;;;5032084;28;20658;-67
2023/04/17 02:31:12;;;;;;;9.77;7.03;;;7.70;99.90;;;;;;5031355;28;20218;-67
2023/04/17 02:33:40;;;;;;;10.65;7.90;;;7.70;99.90;;;;;;5032268;28;20202;-67
2023/04/17 02:36:08;;;;;;;10.63;7.50;;;7.70;99.90;;;;;;5024098;28;20237;-67
2023/04/17 02:38:36;;;;;;;10.63;7.35;;;7.70;99.90;;;;;;5012117;28;20214;-67
2023/04/17 02:41:03;;;;;;;12.57;7.82;;;7.70;99.90;;;;;;5011810;28;20194;-67
2023/04/17 02:43:30;;;;;;;10.65;7.60;;;7.70;99.90;;;;;;5011706;28;20377;-67
2023/04/17 02:45:56;;;;;;;11.73;8.70;;;7.70;99.90;;;;;;5011221;28;20205;-66
2023/04/17 02:48:23;;;;;;;11.32;7.53;;;7.70;99.90;;;;;;5011825;28;20210;-67
2023/04/17 02:50:51;;;;;;;12.57;7.72;;;7.70;99.90;;;;;;5011966;28;20223;-67
2023/04/17 02:53:18;;;;;;;9.88;7.72;;;7.70;99.90;;;;;;5011686;28;20207;-67
2023/04/17 02:55:44;;;;;;;11.13;8.10;;;7.70;99.90;;;;;;5012082;28;20448;-67
2023/04/17 02:58:12;;;;;;;11.20;8.20;;;7.70;99.90;;;;;;5011745;28;20214;-66
2023/04/17 03:00:39;;;;;;;10.77;7.68;;;7.70;99.90;;;;;;5003757;28;20226;-67
2023/04/17 03:03:06;;;;;;;10.13;6.80;;;7.70;99.90;;;;;;5011685;28;20673;-67
2023/04/17 03:05:33;;;;;;;10.73;7.70;;;7.70;99.90;;;;;;5011721;28;20205;-67
2023/04/17 03:08:01;;;;;;;10.73;7.82;;;7.70;99.90;;;;;;5011531;28;20230;-67
2023/04/17 03:10:27;;;;;;;12.20;8.35;;;7.70;99.90;;;;;;5011145;28;20218;-66
2023/04/17 03:12:54;;;;;;;12.10;8.60;;;7.60;99.90;;;;;;5011487;28;20693;-67
2023/04/17 03:15:21;;;;;;;12.90;8.00;;;7.60;99.90;;;;;;5011591;28;20297;-67
2023/04/17 03:17:48;;;;;;;14.05;8.45;;;7.60;99.90;;;;;;5011473;28;20230;-67
2023/04/17 03:20:15;;;;;;;14.07;8.65;;;7.60;99.90;;;;;;5010971;28;20190;-67
2023/04/17 03:22:42;;;;;;;12.65;8.15;;;7.60;99.90;;;;;;5011646;28;20322;-67
2023/04/17 03:25:10;;;;;;;12.20;9.02;;;7.60;99.90;;;;;;5011345;28;20213;-66
2023/04/17 03:27:37;;;;;;;11.57;7.82;;;7.60;99.90;;;;;;5011371;28;20242;-66
2023/04/17 03:30:05;;;;;;;11.70;8.18;;;7.60;99.90;;;;;;5011065;28;20301;-67
2023/04/17 03:32:31;;;;;;;10.55;7.93;;;7.60;99.90;;;;;;5011337;28;20623;-66
2023/04/17 03:34:58;;;;;;;13.80;8.40;;;7.50;99.90;;;;;;5011352;28;20285;-67
2023/04/17 03:37:25;;;;;;;15.07;8.40;;;7.50;99.90;;;;;;5029250;28;20233;-65
2023/04/17 03:39:52;;;;;;;10.15;7.40;;;7.50;99.90;;;;;;5030732;28;20259;-67
2023/04/17 03:42:20;;;;;;;12.63;8.50;;;7.50;99.90;;;;;;5030640;28;20225;-67
2023/04/17 03:44:46;;;;;;;13.50;9.48;;;7.50;99.90;;;;;;5031064;28;20224;-67
2023/04/17 03:47:13;;;;;;;13.02;9.20;;;7.50;99.90;;;;;;5030314;28;20225;-67
2023/04/17 03:49:40;;;;;;;10.70;7.47;;;7.50;99.90;;;;;;5030764;28;20228;-66
2023/04/17 03:52:06;;;;;;;13.95;8.75;;;7.50;99.90;;;;;;5030105;28;20204;-67
2023/04/17 03:54:34;;;;;;;13.02;8.80;;;7.50;99.90;;;;;;5030714;28;20606;-67
2023/04/17 03:57:01;;;;;;;12.30;8.40;;;7.50;99.90;;;;;;5029910;28;20228;-67
2023/04/17 03:59:30;;;;;;;13.55;7.88;;;7.50;99.90;;;;;;5030638;28;20664;-67
2023/04/17 04:01:57;;;;;;;11.80;8.23;;;7.50;99.90;;;;;;5030419;28;20381;-67
2023/04/17 04:04:24;;;;;;;10.30;7.30;;;7.50;99.90;;;;;;5019302;28;20582;-67
2023/04/17 04:06:53;;;;;;;12.63;8.38;;;7.50;99.90;;;;;;5010567;28;20244;-68
2023/04/17 04:09:20;;;;;;;11.90;7.25;;;7.50;99.90;;;;;;5011103;28;20198;-67
2023/04/17 04:11:46;;;;;;;11.40;7.90;;;7.50;99.90;;;;;;5011526;28;20210;-67
2023/04/17 04:14:13;;;;;;;11.65;8.20;;;7.60;99.90;;;;;;5010445;28;20209;-67
2023/04/17 04:16:41;;;;;;;11.80;8.82;;;7.50;99.90;;;;;;5010347;28;20267;-68
2023/04/17 04:19:08;;;;;;;10.35;7.38;;;7.50;99.90;;;;;;5010321;28;20351;-68
2023/04/17 04:21:35;;;;;;;11.97;8.60;;;7.50;99.90;;;;;;5009492;28;20903;-67
2023/04/17 04:24:02;;;;;;;13.75;8.18;;;7.50;99.90;;;;;;5010146;28;20464;-66
2023/04/17 04:26:29;;;;;;;13.07;7.97;;;7.50;99.90;;;;;;5010588;28;20253;-67
2023/04/17 04:28:56;;;;;;;11.80;7.97;;;7.50;99.90;;;;;;5010621;28;20202;-67
2023/04/17 04:33:54;;;;;;;11.35;7.85;;;7.50;99.90;;;;;;5027320;28;20217;-68
2023/04/17 04:36:21;;;;;;;10.52;7.85;;;7.60;99.90;;;;;;5029249;28;20252;-68
2023/04/17 04:38:49;;;;;;;10.20;7.55;;;7.60;99.90;;;;;;5034333;28;20854;-68
2023/04/17 04:41:16;;;;;;;9.73;7.00;;;7.60;99.90;;;;;;5048956;28;20281;-68
2023/04/17 04:43:43;;;;;;;9.73;7.53;;;7.60;99.90;;;;;;5049496;28;20288;-68
2023/04/17 04:46:10;;;;;;;10.02;7.25;;;7.60;99.90;;;;;;5033712;28;20198;-68
2023/04/17 04:48:37;;;;;;;14.90;8.55;;;7.60;99.90;;;;;;5029314;28;21006;-69
2023/04/17 04:51:05;;;;;;;9.75;7.15;;;7.60;99.90;;;;;;5029343;28;20704;-70
2023/04/17 04:53:32;;;;;;;12.32;8.40;;;7.60;99.90;;;;;;5029353;28;20207;-69
2023/04/17 04:55:59;;;;;;;11.55;8.25;;;7.60;99.90;;;;;;5044434;28;20267;-69
2023/04/17 04:58:28;;;;;;;10.95;7.35;;;7.60;99.90;;;;;;5049123;28;20212;-69
2023/04/17 05:00:55;;;;;;;11.43;7.75;;;7.60;99.90;;;;;;5049253;28;20193;-69
2023/04/17 05:03:22;;;;;;;12.68;8.18;;;7.60;99.90;;;;;;5049262;28;20204;-69
2023/04/17 05:05:49;;;;;;;11.70;7.93;;;7.60;99.90;;;;;;5049777;28;20215;-69
2023/04/17 05:08:17;;;;;;;12.38;8.98;;;7.60;99.90;;;;;;5051054;28;20316;-69
2023/04/17 05:10:53;;;;;;;13.10;8.27;;;7.60;99.90;;;;;;5040388;28;20308;-69
2023/04/17 05:13:20;;;;;;;11.48;8.15;;;7.60;99.90;;;;;;5032699;28;20205;-69
2023/04/17 05:15:47;;;;;;;12.18;7.97;;;7.60;99.90;;;;;;5033730;28;20677;-70
2023/04/17 05:18:13;;;;;;;12.75;7.55;;;7.60;99.90;;;;;;5033304;28;20217;-70
2023/04/17 05:20:40;;;;;;;14.55;9.30;;;7.60;99.90;;;;;;5033327;28;20544;-69
2023/04/17 05:23:07;;;;;;;11.55;8.32;;;7.60;99.90;;;;;;5033517;28;20208;-69
2023/04/17 05:25:35;;;;;;;9.88;7.63;;;7.60;99.90;;;;;;5033284;28;20205;-69
2023/04/17 05:28:01;;;;;;;11.35;7.90;;;7.60;99.90;;;;;;5033441;28;20247;-69
2023/04/17 05:30:28;;;;;;;10.77;8.70;;;7.60;99.90;;;;;;5032651;28;20225;-69
2023/04/17 05:32:55;;;;;;;14.10;7.13;;;7.60;99.90;;;;;;5045645;28;20213;-69
2023/04/17 05:35:22;;;;;;;11.88;7.95;;;7.60;99.90;;;;;;5046910;28;20205;-69
2023/04/17 05:37:49;;;;;;;10.68;7.80;;;7.60;99.90;;;;;;5066013;28;20216;-69
2023/04/17 05:40:17;;;;;;;13.77;7.63;;;7.60;99.90;;;;;;5054884;28;20205;-69
2023/04/17 05:42:45;;;;;;;13.40;8.43;;;7.60;99.90;;;;;;5054115;28;20224;-69
2023/04/17 05:45:13;;;;;;;13.23;7.82;;;7.60;99.90;;;;;;5068935;28;20204;-69
2023/04/17 05:47:41;;;;;;;11.23;7.82;;;7.60;99.90;;;;;;5044278;28;20220;-69
2023/04/17 05:50:09;;;;;;;10.80;7.20;;;7.70;99.90;;;;;;5052276;28;20338;-69
2023/04/17 05:52:37;;;;;;;15.20;8.02;;;7.70;99.90;;;;;;5043570;28;20237;-69
2023/04/17 05:55:04;;;;;;;12.00;8.77;;;7.70;99.90;;;;;;5052188;28;20236;-69
2023/04/17 05:57:32;;;;;;;12.93;7.63;;;7.80;99.90;;;;;;5054886;28;20348;-69
2023/04/17 06:00:00;;;;;;;11.80;7.50;;;7.80;99.90;;;;;;5058043;28;20197;-69
2023/04/17 06:02:28;;;;;;;13.23;8.48;;;7.80;99.90;;;;;;5054337;28;20699;-69
2023/04/17 06:04:57;;;;;;;11.15;8.20;;;7.80;99.90;;;;;;5072280;28;20204;-69
2023/04/17 06:07:24;;;;;;;11.15;7.60;;;7.80;99.90;;;;;;5071834;28;20231;-69
2023/04/17 06:09:51;;;;;;;9.60;7.10;;;7.80;99.90;;;;;;5071987;28;20204;-69
2023/04/17 06:12:19;;;;;;;12.68;8.65;;;7.80;99.90;;;;;;5071061;28;20212;-69
2023/04/17 06:14:46;;;;;;;12.18;7.45;;;7.80;99.90;;;;;;5052369;28;20201;-69
2023/04/17 06:17:15;;;;;;;10.10;7.60;;;7.80;99.90;;;;;;5051103;28;20221;-69
2023/04/17 06:19:42;;;;;;;13.18;8.02;;;7.80;99.90;;;;;;5052029;28;20237;-69
2023/04/17 06:22:09;;;;;;;11.55;8.40;;;7.80;99.90;;;;;;5052005;28;20200;-69
2023/04/17 06:24:36;;;;;;;12.77;8.50;;;7.80;99.90;;;;;;5051961;28;20303;-69
2023/04/17 06:27:04;;;;;;;10.20;7.80;;;7.90;99.90;;;;;;5052113;28;20263;-69
2023/04/17 06:29:31;;;;;;;11.00;8.15;;;7.80;99.90;;;;;;5062649;28;20207;-69
2023/04/17 06:31:59;;;;;;;11.10;6.93;;;7.80;99.90;;;;;;5071408;28;20223;-69
2023/04/17 06:34:28;;;;;;;11.13;8.05;;;7.80;99.90;;;;;;5071631;28;20257;-69
2023/04/17 06:36:56;;;;;;;11.05;6.85;;;7.80;99.90;;;;;;5071819;28;20216;-69
2023/04/17 06:39:23;;;;;;;10.90;7.60;;;7.80;99.90;;;;;;5071607;28;20208;-69
2023/04/17 06:41:51;;;;;;;11.82;8.20;;;7.90;99.90;;;;;;5072037;28;20189;-69
2023/04/17 06:44:18;;;;;;;10.10;7.60;;;7.90;99.90;;;;;;5072142;28;20602;-69
2023/04/17 06:46:45;;;;;;;11.45;7.65;;;7.90;99.90;;;;;;5060373;28;20224;-69
2023/04/17 06:49:13;;;;;;;10.88;6.68;;;7.90;99.90;;;;;;5051175;28;20554;-69
2023/04/17 06:51:44;;;;;;;10.13;7.47;;;7.90;99.90;;;;;;5051456;28;20760;-69
2023/04/17 06:54:12;;;;;;;12.27;7.72;;;8.00;99.90;;;;;;5051232;28;20197;-69
2023/04/17 06:56:39;;;;;;;6.95;6.25;;;8.00;99.90;;;;;;5067876;28;20217;-69
2023/04/17 06:59:07;;;;;;;8.32;6.50;;;7.90;99.90;;;;;;5051792;28;20288;-69
2023/04/17 07:01:36;;;;;;;11.40;6.43;;;8.00;99.90;;;;;;5050680;28;20190;-69
2023/04/17 07:04:04;;;;;;;14.02;8.30;;;8.00;99.90;;;;;;5051614;28;20649;-69
2023/04/17 07:06:32;;;;;;;9.85;7.43;;;8.00;99.90;;;;;;5050620;28;20252;-69
2023/04/17 07:09:00;;;;;;;12.95;8.18;;;8.00;99.90;;;;;;5049430;28;20208;-69
2023/04/17 07:11:31;;;;;;;10.50;7.35;;;8.00;99.90;;;;;;5049067;28;20726;-68
2023/04/17 07:13:57;;;;;;;10.07;7.55;;;8.00;99.90;;;;;;5051338;28;20668;-69
2023/04/17 07:16:24;;;;;;;11.80;6.47;;;8.00;99.90;;;;;;5050530;28;20592;-68
2023/04/17 07:18:51;;;;;;;10.18;7.25;;;7.90;99.90;;;;;;5050525;28;20283;-68
2023/04/17 07:21:19;;;;;;;12.88;7.63;;;7.90;99.90;;;;;;5049683;28;20582;-68
2023/04/17 07:23:45;;;;;;;8.15;7.03;;;7.90;99.90;;;;;;5050750;28;20201;-68
2023/04/17 07:26:14;;;;;;;9.63;6.38;;;7.90;99.90;;;;;;5050848;28;20619;-68
2023/04/17 07:28:41;;;;;;;8.02;6.18;;;7.90;99.90;;;;;;5043263;28;20549;-68
2023/04/17 07:31:08;;;;;;;9.55;6.80;;;7.80;99.90;;;;;;5049177;28;20221;-69
2023/04/17 07:33:35;;;;;;;10.93;8.40;;;7.80;99.90;;;;;;5050606;28;20213;-68
2023/04/17 07:36:02;;;;;;;7.45;6.45;;;7.80;99.90;;;;;;5050768;28;20220;-69
2023/04/17 07:38:31;;;;;;;9.50;6.60;;;7.80;99.90;;;;;;5050161;28;20611;-69
2023/04/17 07:40:58;;;;;;;8.02;6.28;;;7.80;99.90;;;;;;5050486;28;20200;-69
2023/04/17 07:43:27;;;;;;;10.63;8.23;;;7.80;99.90;;;;;;5049856;28;20229;-69
2023/04/17 07:45:54;;;;;;;8.90;6.80;;;7.80;99.90;;;;;;5050456;28;20284;-70
2023/04/17 07:48:22;;;;;;;8.60;6.60;;;7.90;99.90;;;;;;5050252;28;20592;-70
2023/04/17 07:50:49;;;;;;;10.85;6.70;;;7.90;99.90;;;;;;5050472;28;20207;-69
2023/04/17 07:53:16;;;;;;;8.85;6.30;;;7.90;99.90;;;;;;5049928;28;20292;-69
2023/04/17 07:55:43;;;;;;;7.22;5.15;;;8.00;99.90;;;;;;5050155;28;20564;-69
2023/04/17 07:58:10;;;;;;;7.50;6.15;;;8.00;99.90;;;;;;5050405;28;20221;-69
2023/04/17 08:00:38;;;;;;;7.05;5.78;;;8.10;99.90;;;;;;5049781;28;20565;-69
2023/04/17 08:03:05;;;;;;;6.80;5.57;;;8.10;99.90;;;;;;5050122;28;20189;-69
2023/04/17 08:05:32;;;;;;;9.00;6.63;;;8.10;99.90;;;;;;5049640;28;20230;-69
2023/04/17 08:07:59;;;;;;;8.18;6.13;;;8.10;99.90;;;;;;5049257;28;20212;-69
2023/04/17 08:10:27;;;;;;;8.55;6.80;;;8.20;99.90;;;;;;5059497;28;20208;-70
2023/04/17 08:12:53;;;;;;;7.68;5.88;;;8.20;99.90;;;;;;5070094;28;20282;-70
2023/04/17 08:15:20;;;;;;;9.45;6.47;;;8.30;99.90;;;;;;5069380;28;20223;-68
2023/04/17 08:17:48;;;;;;;10.13;6.50;;;8.30;99.90;;;;;;5069793;28;20232;-69
2023/04/17 08:20:17;;;;;;;8.10;5.82;;;8.30;99.90;;;;;;5068717;28;20656;-69
2023/04/17 08:22:45;;;;;;;8.65;6.30;;;8.30;99.90;;;;;;5070236;28;20227;-69
2023/04/17 08:25:12;;;;;;;8.80;6.20;;;8.30;99.90;;;;;;5069618;28;20279;-69
2023/04/17 08:27:40;;;;;;;7.45;5.30;;;8.30;99.90;;;;;;5041522;28;20224;-69
2023/04/17 08:30:09;;;;;;;8.00;5.90;;;8.30;99.90;;;;;;5049330;28;20628;-69
2023/04/17 08:32:38;;;;;;;7.72;5.43;;;8.30;99.90;;;;;;5048760;28;20213;-69
2023/04/17 08:35:08;;;;;;;9.75;5.95;;;8.40;99.90;;;;;;5049524;28;20612;-69
2023/04/17 08:37:35;;;;;;;9.07;5.75;;;8.40;99.90;;;;;;5048755;28;20320;-69
2023/04/17 08:40:03;;;;;;;7.07;4.88;;;8.40;99.90;;;;;;5049372;28;20255;-69
2023/04/17 08:42:31;;;;;;;7.30;5.22;;;8.50;99.90;;;;;;5049074;28;20209;-69
2023/04/17 08:44:59;;;;;;;6.80;4.55;;;8.50;99.90;;;;;;5049650;28;20204;-69
2023/04/17 08:47:26;;;;;;;10.20;5.95;;;8.60;99.90;;;;;;5049352;28;20225;-69
2023/04/17 08:49:54;;;;;;;9.30;6.30;;;8.60;99.90;;;;;;5049297;28;20210;-69
2023/04/17 08:52:22;;;;;;;7.80;5.85;;;8.70;99.90;;;;;;5048998;28;20217;-69
2023/04/17 08:54:49;;;;;;;6.20;4.90;;;8.70;99.90;;;;;;5049263;28;20283;-69
2023/04/17 08:57:16;;;;;;;7.03;4.95;;;8.80;99.90;;;;;;5048520;28;20253;-69
2023/04/17 08:59:44;;;;;;;7.90;5.82;;;8.80;99.90;;;;;;5049524;28;20197;-69
2023/04/17 09:02:11;;;;;;;6.60;4.63;;;8.80;99.90;;;;;;5048800;28;20197;-69
2023/04/17 09:04:40;;;;;;;6.75;5.82;;;8.70;99.90;;;;;;5048870;28;20624;-69
2023/04/17 09:07:07;;;;;;;6.57;5.10;;;8.70;99.90;;;;;;5049162;28;20255;-69
2023/04/17 09:09:52;;;;;;;6.50;4.65;;;8.70;99.90;;;;;;5048251;28;20212;-68
2023/04/17 09:12:21;;;;;;;6.78;5.38;;;8.70;99.90;;;;;;5048743;28;20212;-68
2023/04/17 09:14:47;;;;;;;6.10;4.70;;;8.70;99.90;;;;;;5049038;28;20197;-68
2023/04/17 09:17:16;;;;;;;5.72;4.75;;;8.80;99.90;;;;;;5048793;28;20220;-68
2023/04/17 09:20:07;;;;;;;5.97;5.22;;;8.90;99.90;;;;;;5049140;28;20365;-69
2023/04/17 09:22:35;;;;;;;5.90;4.65;;;8.90;99.90;;;;;;5048172;28;20193;-69
2023/04/17 09:25:04;;;;;;;5.72;4.13;;;9.00;99.90;;;;;;5049217;28;20208;-69
2023/04/17 09:27:30;;;;;;;6.20;4.22;;;9.10;99.90;;;;;;5048497;28;20221;-69
2023/04/17 09:29:59;;;;;;;8.18;5.78;;;9.20;99.90;;;;;;5048513;28;20204;-69
2023/04/17 09:32:27;;;;;;;4.97;4.15;;;9.40;99.90;;;;;;5048324;28;20271;-68
2023/04/17 09:34:55;;;;;;;5.65;4.50;;;9.50;99.90;;;;;;5048747;28;20572;-69
2023/04/17 09:37:22;;;;;;;5.65;5.03;;;9.70;99.90;;;;;;5048355;28;20265;-69
2023/04/17 09:40:00;;;;;;;8.27;5.32;;;9.80;99.90;;;;;;5049335;28;20194;-69
2023/04/17 09:42:28;;;;;;;4.15;3.58;;;9.90;99.90;;;;;;5048487;28;20231;-68
2023/04/17 09:44:56;;;;;;;5.60;4.20;;;10.00;99.90;;;;;;5048868;28;20653;-68
2023/04/17 09:47:23;;;;;;;5.72;4.55;;;10.00;99.90;;;;;;5048052;28;20311;-68
2023/04/17 09:49:53;;;;;;;4.95;3.92;;;9.90;99.90;;;;;;5048513;28;20619;-69
2023/04/17 09:52:23;;;;;;;4.00;3.60;;;9.80;99.90;;;;;;5048476;28;20730;-69
2023/04/17 09:54:52;;;;;;;5.63;4.22;;;9.70;99.90;;;;;;5056877;28;20201;-68
2023/04/17 09:57:19;;;;;;;6.88;4.55;;;9.60;99.90;;;;;;5068664;28;20303;-69
2023/04/17 09:59:48;;;;;;;5.40;4.30;;;9.60;99.90;;;;;;5071863;28;20207;-69
2023/04/17 10:02:17;;;;;;;5.80;4.57;;;9.60;99.90;;;;;;5072525;28;20690;-69
2023/04/17 10:04:45;;;;;;;5.68;4.05;;;9.70;99.90;;;;;;5072621;28;20201;-69
2023/04/17 10:07:12;;;;;;;5.35;4.10;;;9.80;99.90;;;;;;5056506;28;20228;-69
2023/04/17 10:09:41;;;;;;;4.80;4.30;;;10.10;99.90;;;;;;5052568;28;20730;-69
2023/04/17 10:12:13;;;;;;;5.20;4.45;;;10.50;99.90;;;;;;5051789;28;20286;-69
2023/04/17 10:14:42;;;;;;;8.00;5.00;;;10.90;99.90;;;;;;5052309;28;20200;-70
2023/04/17 10:17:32;;;;;;;4.78;4.38;;;11.20;99.90;;;;;;5060032;28;20691;-69
2023/04/17 10:20:34;;;;;;;6.63;4.05;;;11.40;99.90;;;;;;5072267;28;20226;-69
2023/04/17 10:23:28;;;;;;;6.57;3.90;;;11.50;99.90;;;;;;5072520;28;20188;-69
2023/04/17 10:26:40;;;;;;;4.65;3.70;;;11.40;99.90;;;;;;5072109;28;20698;-69
2023/04/17 10:29:07;;;;;;;5.97;4.10;;;11.20;99.90;;;;;;5072220;28;20200;-69
2023/04/17 10:32:16;;;;;;;3.47;3.17;;;10.80;99.90;;;;;;5071443;28;20196;-69
2023/04/17 10:34:44;;;;;;;4.30;3.70;;;10.50;99.90;;;;;;5072448;28;20204;-69
2023/04/17 10:37:14;;;;;;;4.90;4.05;;;10.30;99.90;;;;;;5071748;28;20265;-69
2023/04/17 10:40:00;;;;;;;4.70;4.25;;;10.10;99.90;;;;;;5056173;28;20231;-69
2023/04/17 10:42:31;;;;;;;5.65;4.15;;;10.00;99.90;;;;;;5051424;28;20216;-69
2023/04/17 10:45:03;;;;;;;4.72;4.00;;;9.90;99.90;;;;;;5049348;28;20207;-69
2023/04/17 10:47:32;;;;;;;5.10;4.15;;;9.90;99.90;;;;;;5048885;28;20224;-69
2023/04/17 10:50:02;;;;;;;5.90;3.85;;;9.90;99.90;;;;;;5063100;28;20200;-69
2023/04/17 10:52:43;;;;;;;4.90;4.35;;;10.00;99.90;;;;;;5062154;28;20221;-69
2023/04/17 10:55:15;;;;;;;4.72;4.25;;;10.00;99.90;;;;;;5054179;28;20266;-69
2023/04/17 10:58:00;;;;;;;5.22;4.25;;;10.10;99.90;;;;;;5048545;28;20953;-69
2023/04/17 11:00:31;;;;;;;6.15;4.45;;;10.00;99.90;;;;;;5056503;28;20204;-69
2023/04/17 11:03:00;;;;;;;5.95;4.13;;;10.00;99.90;;;;;;5057579;28;20197;-69
2023/04/17 11:05:30;;;;;;;4.93;4.43;;;10.00;99.90;;;;;;5047098;28;20263;-69
2023/04/17 11:07:56;;;;;;;5.00;4.40;;;10.00;99.90;;;;;;5047714;28;20220;-69
2023/04/17 11:10:23;;;;;;;6.72;4.10;;;10.00;99.90;;;;;;5065002;28;20208;-69
2023/04/17 11:12:54;;;;;;;5.18;4.40;;;10.10;99.90;;;;;;5067981;28;20221;-69
2023/04/17 11:15:26;;;;;;;5.32;3.92;;;10.20;99.90;;;;;;5067510;28;20679;-69
2023/04/17 11:17:54;;;;;;;4.03;3.30;;;10.40;99.90;;;;;;5068105;28;20248;-69
2023/04/17 11:20:22;;;;;;;3.78;3.33;;;10.40;99.90;;;;;;5050790;28;20712;-69
2023/04/17 11:22:50;;;;;;;5.13;4.20;;;10.40;99.90;;;;;;5047546;28;20197;-69
2023/04/17 11:25:21;;;;;;;4.10;3.70;;;10.50;99.90;;;;;;5047783;28;20212;-69
2023/04/17 11:27:51;;;;;;;4.90;4.40;;;10.50;99.90;;;;;;5047030;28;20245;-69
2023/04/17 11:30:27;;;;;;;4.35;3.88;;;10.70;99.90;;;;;;5047544;28;20602;-69
2023/04/17 11:32:54;;;;;;;3.35;3.00;;;10.90;99.90;;;;;;5047594;28;20220;-68
2023/04/17 11:35:28;;;;;;;2.97;2.70;;;11.00;99.90;;;;;;5055255;28;20197;-69
2023/04/17 11:38:07;;;;;;;3.40;2.92;;;11.10;99.90;;;;;;5067491;28;20242;-68
2023/04/17 11:40:34;;;;;;;3.78;2.50;;;11.30;99.90;;;;;;5048537;28;20201;-69
2023/04/17 11:43:06;;;;;;;2.90;2.60;;;11.60;99.90;;;;;;5048082;28;20527;-69
2023/04/17 11:45:33;;;;;;;3.13;2.80;;;12.00;99.90;;;;;;5047635;28;20205;-69
2023/04/17 11:48:01;;;;;;;3.80;3.40;;;12.90;99.90;;;;;;5045239;28;20224;-69
2023/04/17 11:50:29;;;;;;;3.40;2.80;;;13.70;99.90;;;;;;5047210;28;20467;-69
2023/04/17 11:52:58;;;;;;;3.80;3.10;;;14.40;99.90;;;;;;5058327;28;20471;-69
2023/04/17 11:55:30;;;;;;;3.10;2.73;;;15.20;99.90;;;;;;5055753;28;20842;-69
2023/04/17 11:57:58;;;;;;;2.60;2.40;;;16.00;99.90;;;;;;5066753;28;21027;-69
2023/04/17 12:00:28;;;;;;;2.97;2.63;;;17.10;99.90;;;;;;5058785;28;20463;-69
2023/04/17 12:02:57;;;;;;;2.60;2.40;;;18.20;99.90;;;;;;5067430;28;20792;-69
2023/04/17 12:05:25;;;;;;;3.20;2.90;;;19.50;99.90;;;;;;5066942;28;20469;-69
2023/04/17 12:08:04;;;;;;;2.57;2.37;;;20.30;99.90;;;;;;5054689;28;20541;-69
2023/04/17 12:10:41;;;;;;;2.77;2.57;;;20.40;99.90;;;;;;5063350;28;20470;-69
2023/04/17 12:13:09;;;;;;;2.17;1.97;;;20.70;99.90;;;;;;5048050;28;20479;-69
2023/04/17 12:15:36;;;;;;;3.20;2.47;;;20.60;99.90;;;;;;5057685;28;20467;-69
2023/04/17 12:18:05;;;;;;;2.20;2.00;;;19.90;99.90;;;;;;5060735;28;20483;-69
2023/04/17 12:20:36;;;;;;;2.90;2.57;;;18.30;99.90;;;;;;5056631;28;20462;-69
2023/04/17 12:23:04;;;;;;;3.07;2.40;;;17.10;99.90;;;;;;5066787;28;20458;-69
2023/04/17 12:25:32;;;;;;;2.70;2.47;;;16.20;99.90;;;;;;5065826;28;20466;-69
2023/04/17 12:28:03;;;;;;;4.00;3.07;;;15.70;99.90;;;;;;5054333;28;20499;-69
2023/04/17 12:30:30;;;;;;;3.50;3.03;;;15.20;99.90;;;;;;5065634;28;20525;-68
2023/04/17 12:32:57;;;;;;;3.33;3.00;;;14.70;99.90;;;;;;5124987;22;20487;-69
2023/04/17 12:35:24;;;;;;;3.20;2.90;;;14.20;99.90;;;;;;5049910;28;20477;-68
2023/04/17 12:37:51;;;;;;;3.80;3.03;;;13.80;99.90;;;;;;5025510;28;20481;-68
2023/04/17 12:40:18;;;;;;;4.43;3.77;;;13.40;99.90;;;;;;5029298;28;20503;-68
2023/04/17 12:42:46;;;;;;;3.00;2.70;;;13.10;99.90;;;;;;5029217;28;20456;-68
2023/04/17 12:45:14;;;;;;;3.13;2.83;;;12.90;99.90;;;;;;5028530;28;20461;-69
2023/04/17 12:47:41;;;;;;;3.70;3.40;;;12.70;99.90;;;;;;5029533;28;20554;-68
2023/04/17 12:50:10;;;;;;;3.60;3.30;;;12.50;99.90;;;;;;5029968;28;20456;-69
2023/04/17 12:52:37;;;;;;;3.85;3.35;;;12.50;99.90;;;;;;5029710;28;20683;-69
2023/04/17 12:55:05;;;;;;;4.70;3.13;;;12.70;99.90;;;;;;5030098;28;20200;-68
2023/04/17 12:57:31;;;;;;;4.22;3.70;;;12.60;99.90;;;;;;5029863;28;20248;-69
2023/04/17 12:59:58;;;;;;;3.70;3.30;;;12.70;99.90;;;;;;5029976;28;20673;-68